createdAt,value
2023-04-19T19:53:01.740Z,9.80
2023-04-19T19:55:29.950Z,9.60
2023-04-19T20:02:59.650Z,9.60
2023-04-19T20:05:29.652Z,9.50
2023-04-19T20:08:07.799Z,9.50
2023-04-19T20:10:36.430Z,9.50
2023-04-19T20:13:06.163Z,9.40
2023-04-19T20:15:34.547Z,9.40
2023-04-19T20:18:03.347Z,9.30
2023-04-19T20:20:33.245Z,9.30
2023-04-19T20:23:01.088Z,9.20
2023-04-19T20:25:31.099Z,9.20
2023-04-19T20:27:59.192Z,9.10
2023-04-19T20:30:27.145Z,9.10
2023-04-19T20:32:55.114Z,8.90
2023-04-19T20:35:23.234Z,9.00
2023-04-19T20:37:52.512Z,8.90
2023-04-19T20:40:20.365Z,8.90
2023-04-19T20:42:48.441Z,8.90
2023-04-19T20:45:16.305Z,8.80
2023-04-19T20:47:44.166Z,8.80
2023-04-19T20:50:12.310Z,8.70
2023-04-19T20:52:40.440Z,8.80
2023-04-19T20:55:10.517Z,8.70
2023-04-19T20:57:38.363Z,8.70
2023-04-19T21:00:09.287Z,8.70
2023-04-19T21:02:37.405Z,8.60
2023-04-19T21:05:05.854Z,8.70
2023-04-19T21:07:33.767Z,8.60
2023-04-19T21:10:01.585Z,8.60
2023-04-19T21:12:30.822Z,8.60
2023-04-19T21:14:58.641Z,8.50
2023-04-19T21:17:27.052Z,8.50
2023-04-19T21:19:54.926Z,8.50
2023-04-19T21:22:22.801Z,8.50
2023-04-19T21:24:50.726Z,8.50
2023-04-19T21:27:18.650Z,8.50
2023-04-19T21:29:47.845Z,8.40
2023-04-19T21:32:15.664Z,8.40
2023-04-19T21:34:44.578Z,8.40
2023-04-19T21:37:12.430Z,8.30
2023-04-19T21:39:40.329Z,8.30
2023-04-19T21:42:08.148Z,8.30
2023-04-19T21:44:36.265Z,8.30
2023-04-19T21:47:05.553Z,8.20
2023-04-19T21:49:33.484Z,8.20
2023-04-19T21:52:01.361Z,8.20
2023-04-19T21:54:34.056Z,8.10
2023-04-19T21:57:02.900Z,8.10
2023-04-19T21:59:31.292Z,8.10
2023-04-19T22:01:59.965Z,8.10
2023-04-19T22:04:30.681Z,8.00
2023-04-19T22:07:01.848Z,8.00
2023-04-19T22:09:30.005Z,7.90
2023-04-19T22:11:57.933Z,7.90
2023-04-19T22:14:25.742Z,7.90
2023-04-19T22:16:54.915Z,7.80
2023-04-19T22:19:24.742Z,7.70
2023-04-19T22:21:55.034Z,7.80
2023-04-19T22:24:23.077Z,7.70
2023-04-19T22:26:52.864Z,7.70
2023-04-19T22:29:21.030Z,7.70
2023-04-19T22:31:48.985Z,7.70
2023-04-19T22:34:16.928Z,7.70
2023-04-19T22:36:45.111Z,7.60
2023-04-19T22:39:15.867Z,7.60
2023-04-19T22:41:44.142Z,7.50
2023-04-19T22:44:12.095Z,7.50
2023-04-19T22:46:40.020Z,7.50
2023-04-19T22:49:10.082Z,7.40
2023-04-19T22:51:38.320Z,7.40
2023-04-19T22:54:06.318Z,7.30
2023-04-19T22:56:35.550Z,7.30
2023-04-19T22:59:03.388Z,7.30
2023-04-19T23:01:31.484Z,7.20
2023-04-19T23:03:59.596Z,7.20
2023-04-19T23:06:28.902Z,7.20
2023-04-19T23:08:56.820Z,7.10
2023-04-19T23:11:25.827Z,7.10
2023-04-19T23:13:55.270Z,7.00
2023-04-19T23:16:24.546Z,7.00
2023-04-19T23:18:52.659Z,7.00
2023-04-19T23:21:20.563Z,6.90
2023-04-19T23:23:48.404Z,6.90
2023-04-19T23:26:16.242Z,6.90
2023-04-19T23:28:44.172Z,6.80
2023-04-19T23:31:13.411Z,6.80
2023-04-19T23:33:41.296Z,6.70
2023-04-19T23:36:09.645Z,6.70
2023-04-19T23:38:37.474Z,6.70
2023-04-19T23:41:05.438Z,6.60
2023-04-19T23:43:33.253Z,6.60
2023-04-19T23:46:01.197Z,6.60
2023-04-19T23:48:30.586Z,6.60
2023-04-19T23:50:58.427Z,6.60
2023-04-19T23:53:26.329Z,6.50
2023-04-19T23:55:54.218Z,6.50
2023-04-19T23:58:22.064Z,6.50
